createdAt,value
2022-12-29T00:00:17.660Z,95.65
2022-12-29T00:01:21.041Z,95.59
2022-12-29T00:02:24.010Z,95.60
2022-12-29T00:04:00.810Z,95.65
2022-12-29T00:05:11.725Z,95.53
2022-12-29T00:06:14.721Z,95.51
2022-12-29T00:07:49.405Z,95.44
2022-12-29T00:08:52.358Z,95.34
2022-12-29T00:09:55.194Z,95.33
2022-12-29T00:11:29.970Z,95.20
2022-12-29T00:12:33.020Z,95.22
2022-12-29T00:13:35.781Z,95.14
2022-12-29T00:15:17.647Z,94.99
2022-12-29T00:16:20.979Z,95.03
2022-12-29T00:17:24.180Z,95.01
2022-12-29T00:19:00.115Z,94.94
2022-12-29T00:20:03.964Z,94.87
2022-12-29T00:21:06.923Z,94.86
2022-12-29T00:22:41.869Z,94.80
2022-12-29T00:23:44.792Z,94.77
2022-12-29T00:24:47.733Z,94.66
2022-12-29T00:26:23.451Z,94.64
2022-12-29T00:27:26.414Z,94.63
2022-12-29T00:28:29.377Z,94.63
2022-12-29T00:30:04.308Z,94.50
2022-12-29T00:31:07.547Z,94.41
2022-12-29T00:32:12.984Z,94.30
2022-12-29T00:33:47.825Z,94.27
2022-12-29T00:34:50.738Z,94.34
2022-12-29T00:35:54.760Z,94.29
2022-12-29T00:37:30.426Z,94.10
2022-12-29T00:38:33.378Z,94.08
2022-12-29T00:39:36.286Z,94.11
2022-12-29T00:41:10.982Z,94.05
2022-12-29T00:42:15.227Z,94.07
2022-12-29T00:43:17.923Z,94.05
2022-12-29T00:44:53.329Z,94.06
2022-12-29T00:45:58.563Z,94.00
2022-12-29T00:47:09.621Z,94.05
2022-12-29T00:48:44.545Z,93.90
2022-12-29T00:49:47.665Z,93.88
2022-12-29T00:50:50.606Z,93.84
2022-12-29T00:52:26.514Z,93.86
2022-12-29T00:53:29.298Z,93.84
2022-12-29T00:54:32.215Z,93.83
2022-12-29T00:56:06.816Z,93.79
2022-12-29T00:57:10.044Z,93.78
2022-12-29T00:58:12.925Z,93.75
2022-12-29T00:59:48.893Z,93.73
2022-12-29T01:00:17.858Z,93.75
2022-12-29T01:01:23.773Z,93.77
2022-12-29T01:02:28.343Z,93.78
2022-12-29T01:04:09.822Z,93.80
2022-12-29T01:05:13.557Z,93.81
2022-12-29T01:06:16.629Z,93.74
2022-12-29T01:07:53.160Z,93.73
2022-12-29T01:08:55.987Z,93.77
2022-12-29T01:09:58.991Z,93.79
2022-12-29T01:11:33.761Z,93.73
2022-12-29T01:12:37.431Z,93.76
2022-12-29T01:13:40.242Z,93.78
2022-12-29T01:15:15.287Z,93.75
2022-12-29T01:16:18.334Z,93.69
2022-12-29T01:17:21.468Z,93.66
2022-12-29T01:18:56.228Z,93.63
2022-12-29T01:19:59.111Z,93.60
2022-12-29T01:21:02.174Z,93.59
2022-12-29T01:22:37.627Z,93.69
2022-12-29T01:23:40.580Z,93.71
2022-12-29T01:24:43.594Z,93.78
2022-12-29T01:26:19.905Z,93.69
2022-12-29T01:27:23.777Z,93.72
2022-12-29T01:28:31.819Z,93.64
2022-12-29T01:30:07.451Z,93.71
2022-12-29T01:31:11.669Z,93.64
2022-12-29T01:32:15.567Z,93.59
2022-12-29T01:33:50.509Z,93.47
2022-12-29T01:34:53.462Z,93.45
2022-12-29T01:35:58.581Z,93.32
2022-12-29T01:37:33.141Z,93.29
2022-12-29T01:38:36.020Z,93.26
2022-12-29T01:39:38.907Z,93.23
2022-12-29T01:41:13.618Z,93.24
2022-12-29T01:42:17.347Z,93.17
2022-12-29T01:43:21.036Z,93.26
2022-12-29T01:44:58.222Z,93.34
2022-12-29T01:46:01.163Z,93.45
2022-12-29T01:47:06.114Z,93.53
2022-12-29T01:48:40.679Z,93.51
2022-12-29T01:49:43.432Z,93.56
2022-12-29T01:50:46.330Z,93.78
2022-12-29T01:52:22.012Z,93.88
2022-12-29T01:53:25.040Z,94.04
2022-12-29T01:54:27.916Z,94.12
2022-12-29T01:56:03.834Z,94.26
2022-12-29T01:57:06.810Z,94.59
2022-12-29T01:58:10.221Z,94.70
2022-12-29T01:59:44.836Z,95.11
2022-12-29T02:00:18.032Z,95.21
2022-12-29T02:01:21.441Z,95.29
2022-12-29T02:02:26.615Z,95.52
2022-12-29T02:04:03.275Z,95.64
2022-12-29T02:05:10.583Z,95.59
2022-12-29T02:06:15.186Z,95.63
2022-12-29T02:07:49.969Z,95.71
2022-12-29T02:08:52.995Z,95.78
2022-12-29T02:09:55.868Z,95.73
2022-12-29T02:11:30.725Z,95.80
2022-12-29T02:12:33.597Z,95.78
2022-12-29T02:13:36.755Z,95.77
2022-12-29T02:15:16.082Z,95.73
2022-12-29T02:16:18.923Z,95.67
2022-12-29T02:17:23.836Z,95.69
2022-12-29T02:19:00.300Z,95.67
2022-12-29T02:20:04.010Z,95.74
2022-12-29T02:21:06.863Z,95.69
2022-12-29T02:22:41.793Z,95.64
2022-12-29T02:23:44.641Z,95.57
2022-12-29T02:24:47.483Z,95.46
2022-12-29T02:26:24.139Z,95.35
2022-12-29T02:27:26.998Z,95.31
2022-12-29T02:28:29.891Z,95.24
2022-12-29T02:30:04.578Z,95.51
2022-12-29T02:31:07.354Z,95.65
2022-12-29T02:32:10.876Z,95.81
2022-12-29T02:33:46.654Z,95.97
2022-12-29T02:34:49.446Z,96.00
2022-12-29T02:35:53.431Z,95.88
2022-12-29T02:37:28.125Z,96.00
2022-12-29T02:38:31.526Z,95.95
2022-12-29T02:39:34.594Z,95.97
2022-12-29T02:41:10.042Z,95.89
2022-12-29T02:42:12.894Z,95.85
2022-12-29T02:43:15.802Z,95.77
2022-12-29T02:44:51.680Z,95.66
2022-12-29T02:45:55.083Z,95.75
2022-12-29T02:46:58.797Z,95.73
2022-12-29T02:48:33.703Z,95.65
2022-12-29T02:49:36.451Z,95.70
2022-12-29T02:50:39.773Z,95.47
2022-12-29T02:52:14.543Z,95.28
2022-12-29T02:53:17.244Z,95.25
2022-12-29T02:54:20.375Z,95.08
2022-12-29T02:55:55.200Z,95.00
2022-12-29T02:56:58.932Z,94.91
2022-12-29T02:58:02.984Z,95.04
2022-12-29T02:59:38.342Z,94.54
2022-12-29T03:00:18.306Z,94.54
2022-12-29T03:01:21.400Z,94.40
2022-12-29T03:02:26.154Z,94.34
2022-12-29T03:04:04.564Z,93.63
2022-12-29T03:05:07.492Z,93.35
2022-12-29T03:06:10.380Z,93.22
2022-12-29T03:07:45.527Z,92.34
2022-12-29T03:08:48.298Z,92.30
2022-12-29T03:10:05.571Z,92.28
2022-12-29T03:11:41.575Z,91.57
2022-12-29T03:12:44.354Z,91.71
2022-12-29T03:13:47.956Z,91.63
2022-12-29T03:15:24.013Z,91.71
2022-12-29T03:16:27.023Z,91.78
2022-12-29T03:17:30.465Z,91.71
2022-12-29T03:19:05.032Z,91.73
2022-12-29T03:20:10.238Z,91.85
2022-12-29T03:21:12.932Z,91.89
2022-12-29T03:22:47.825Z,91.97
2022-12-29T03:23:50.674Z,92.07
2022-12-29T03:24:53.455Z,92.19
2022-12-29T03:26:28.208Z,92.21
2022-12-29T03:27:30.993Z,92.26
2022-12-29T03:28:33.723Z,92.37
2022-12-29T03:30:08.921Z,92.64
2022-12-29T03:31:13.121Z,92.80
2022-12-29T03:32:16.228Z,92.86
2022-12-29T03:33:52.900Z,92.94
2022-12-29T03:34:55.897Z,93.08
2022-12-29T03:36:00.102Z,93.18
2022-12-29T03:37:36.136Z,93.31
2022-12-29T03:38:38.927Z,93.34
2022-12-29T03:39:41.814Z,93.37
2022-12-29T03:41:16.612Z,93.41
2022-12-29T03:42:20.067Z,93.59
2022-12-29T03:43:23.859Z,93.78
2022-12-29T03:44:58.789Z,93.83
2022-12-29T03:46:01.628Z,93.85
2022-12-29T03:47:04.995Z,93.81
2022-12-29T03:48:40.803Z,93.81
2022-12-29T03:49:43.709Z,93.79
2022-12-29T03:50:46.529Z,93.67
2022-12-29T03:52:21.209Z,93.58
2022-12-29T03:53:24.294Z,93.58
2022-12-29T03:54:27.084Z,93.47
2022-12-29T03:56:01.859Z,93.43
2022-12-29T03:57:04.750Z,93.41
2022-12-29T03:58:07.506Z,93.44
2022-12-29T03:59:42.266Z,93.52
2022-12-29T04:00:17.633Z,93.64
2022-12-29T04:01:23.876Z,93.46
2022-12-29T04:02:28.341Z,93.37
2022-12-29T04:04:04.922Z,93.24
2022-12-29T04:05:09.355Z,92.93
2022-12-29T04:06:13.252Z,92.74
2022-12-29T04:07:48.118Z,92.71
2022-12-29T04:08:50.924Z,92.47
2022-12-29T04:09:53.917Z,92.55
2022-12-29T04:11:34.644Z,92.56
2022-12-29T04:12:37.531Z,92.53
2022-12-29T04:13:40.410Z,92.61
2022-12-29T04:15:14.989Z,92.59
2022-12-29T04:16:18.886Z,92.73
2022-12-29T04:17:24.014Z,92.76
2022-12-29T04:18:59.203Z,92.85
2022-12-29T04:20:02.087Z,92.88
2022-12-29T04:21:05.854Z,92.92
2022-12-29T04:22:41.941Z,92.93
2022-12-29T04:23:44.823Z,92.93
2022-12-29T04:24:48.058Z,92.99
2022-12-29T04:26:22.768Z,93.13
2022-12-29T04:27:25.647Z,93.16
2022-12-29T04:28:28.696Z,93.17
2022-12-29T04:30:03.824Z,93.17
2022-12-29T04:31:06.849Z,93.15
2022-12-29T04:32:11.126Z,93.26
2022-12-29T04:33:47.944Z,93.27
2022-12-29T04:34:50.785Z,93.30
2022-12-29T04:35:53.519Z,93.24
2022-12-29T04:37:28.285Z,93.25
2022-12-29T04:38:31.271Z,93.27
2022-12-29T04:39:34.032Z,93.25
2022-12-29T04:41:08.788Z,93.26
2022-12-29T04:42:11.518Z,93.13
2022-12-29T04:43:15.764Z,93.23
2022-12-29T04:44:51.084Z,93.19
2022-12-29T04:45:54.633Z,93.13
2022-12-29T04:46:58.902Z,93.14
2022-12-29T04:48:33.586Z,93.16
2022-12-29T04:49:37.686Z,93.12
2022-12-29T04:50:40.820Z,92.97
2022-12-29T04:52:15.723Z,92.85
2022-12-29T04:53:18.695Z,92.75
2022-12-29T04:54:21.590Z,92.47
2022-12-29T04:55:56.300Z,92.32
2022-12-29T04:56:59.094Z,92.14
2022-12-29T04:58:01.926Z,91.97
2022-12-29T04:59:44.149Z,92.05
2022-12-29T05:00:18.417Z,91.83
2022-12-29T05:01:21.963Z,91.81
2022-12-29T05:02:26.481Z,91.83
2022-12-29T05:04:04.612Z,91.72
2022-12-29T05:05:46.730Z,91.36
2022-12-29T05:06:49.808Z,91.21
2022-12-29T05:07:53.475Z,91.29
2022-12-29T05:09:28.972Z,90.92
2022-12-29T05:10:31.787Z,90.93
2022-12-29T05:11:34.920Z,90.59
2022-12-29T05:13:09.680Z,89.60
2022-12-29T05:14:13.228Z,89.67
2022-12-29T05:15:17.281Z,89.34
2022-12-29T05:16:55.108Z,89.20
2022-12-29T05:17:59.036Z,88.29
2022-12-29T05:19:01.789Z,88.32
2022-12-29T05:20:36.886Z,88.47
2022-12-29T05:21:39.653Z,88.20
2022-12-29T05:22:42.428Z,87.99
2022-12-29T05:24:17.031Z,87.73
2022-12-29T05:25:20.218Z,87.26
2022-12-29T05:26:23.231Z,87.06
2022-12-29T05:27:58.088Z,86.74
2022-12-29T05:29:01.012Z,86.75
2022-12-29T05:30:04.512Z,86.46
2022-12-29T05:31:39.691Z,85.80
2022-12-29T05:32:42.909Z,86.30
2022-12-29T05:33:45.687Z,85.85
2022-12-29T05:35:20.506Z,84.70
2022-12-29T05:36:24.141Z,84.79
2022-12-29T05:37:34.593Z,84.79
2022-12-29T05:39:10.151Z,84.81
2022-12-29T05:40:13.301Z,85.07
2022-12-29T05:41:16.129Z,85.05
2022-12-29T05:42:51.359Z,84.86
2022-12-29T05:43:54.229Z,85.19
2022-12-29T05:44:58.769Z,84.95
2022-12-29T05:46:33.627Z,84.65
2022-12-29T05:47:37.317Z,84.66
2022-12-29T05:48:44.019Z,84.70
2022-12-29T05:50:19.769Z,84.29
2022-12-29T05:51:23.961Z,84.26
2022-12-29T05:52:26.753Z,84.46
2022-12-29T05:54:01.363Z,84.38
2022-12-29T05:55:04.698Z,84.45
2022-12-29T05:56:07.607Z,84.37
2022-12-29T05:57:42.407Z,84.81
2022-12-29T05:58:45.376Z,84.92
2022-12-29T05:59:48.305Z,85.00
2022-12-29T06:00:17.442Z,84.90
2022-12-29T06:01:20.423Z,85.14
2022-12-29T06:02:24.507Z,85.24
2022-12-29T06:04:02.079Z,84.75
2022-12-29T06:05:05.228Z,84.86
2022-12-29T06:06:08.460Z,84.83
2022-12-29T06:07:43.233Z,84.67
2022-12-29T06:08:46.458Z,84.91
2022-12-29T06:09:49.430Z,84.92
2022-12-29T06:11:24.267Z,84.77
2022-12-29T06:12:27.377Z,84.79
2022-12-29T06:13:30.529Z,85.06
2022-12-29T06:15:05.328Z,85.16
2022-12-29T06:16:09.179Z,84.89
2022-12-29T06:17:12.825Z,84.97
2022-12-29T06:18:47.815Z,85.14
2022-12-29T06:19:50.778Z,84.82
2022-12-29T06:20:53.496Z,85.31
2022-12-29T06:22:29.675Z,85.53
2022-12-29T06:23:32.571Z,86.21
2022-12-29T06:24:35.550Z,87.12
2022-12-29T06:26:17.423Z,87.60
2022-12-29T06:27:20.261Z,88.01
2022-12-29T06:28:23.468Z,87.86
2022-12-29T06:29:58.813Z,88.42
2022-12-29T06:31:01.844Z,88.65
2022-12-29T06:32:05.237Z,88.49
2022-12-29T06:33:40.124Z,88.85
2022-12-29T06:34:54.302Z,88.89
2022-12-29T06:35:57.543Z,88.60
2022-12-29T06:37:32.746Z,88.58
2022-12-29T06:38:35.700Z,88.87
2022-12-29T06:39:38.885Z,88.90
2022-12-29T06:41:13.580Z,89.18
2022-12-29T06:42:23.837Z,89.09
2022-12-29T06:43:27.033Z,89.27
2022-12-29T06:45:01.806Z,89.28
2022-12-29T06:46:04.995Z,89.48
2022-12-29T06:47:09.012Z,89.57
2022-12-29T06:48:43.946Z,89.99
2022-12-29T06:49:46.749Z,90.30
2022-12-29T06:50:49.583Z,90.31
2022-12-29T06:52:24.408Z,90.48
2022-12-29T06:53:27.164Z,90.59
2022-12-29T06:54:30.107Z,90.84
2022-12-29T06:56:04.800Z,90.66
2022-12-29T06:57:07.608Z,90.91
2022-12-29T06:58:10.546Z,91.01
2022-12-29T06:59:45.504Z,91.29
2022-12-29T07:00:22.575Z,91.29
2022-12-29T07:01:26.249Z,91.72
2022-12-29T07:02:30.320Z,92.01
2022-12-29T07:04:06.285Z,92.07
2022-12-29T07:05:09.133Z,92.19
2022-12-29T07:06:12.210Z,92.52
2022-12-29T07:07:47.601Z,92.85
2022-12-29T07:08:50.378Z,92.95
2022-12-29T07:09:53.293Z,92.97
2022-12-29T07:11:28.147Z,93.24
2022-12-29T07:12:30.882Z,93.30
2022-12-29T07:13:33.736Z,93.37
2022-12-29T07:15:08.356Z,93.35
2022-12-29T07:16:11.788Z,93.47
2022-12-29T07:17:15.115Z,93.45
2022-12-29T07:18:50.371Z,93.34
2022-12-29T07:19:53.321Z,93.48
2022-12-29T07:20:56.122Z,93.56
2022-12-29T07:22:30.977Z,93.23
2022-12-29T07:23:34.051Z,93.21
2022-12-29T07:24:37.093Z,93.30
2022-12-29T07:26:11.857Z,93.02
2022-12-29T07:27:22.256Z,92.90
2022-12-29T07:28:25.190Z,92.58
2022-12-29T07:29:59.994Z,92.70
2022-12-29T07:31:03.586Z,92.37
2022-12-29T07:32:06.790Z,91.58
2022-12-29T07:33:42.472Z,91.19
2022-12-29T07:34:45.436Z,90.85
2022-12-29T07:35:48.349Z,90.77
2022-12-29T07:37:26.533Z,90.26
2022-12-29T07:38:29.534Z,90.40
2022-12-29T07:39:32.240Z,89.28
2022-12-29T07:41:07.163Z,88.63
2022-12-29T07:42:10.974Z,88.56
2022-12-29T07:43:14.861Z,88.72
2022-12-29T07:44:50.007Z,88.00
2022-12-29T07:45:52.964Z,88.25
2022-12-29T07:47:41.092Z,88.53
2022-12-29T07:49:15.955Z,89.13
2022-12-29T07:50:19.025Z,89.15
2022-12-29T07:51:21.891Z,89.36
2022-12-29T07:52:57.140Z,90.04
2022-12-29T07:53:59.988Z,90.60
2022-12-29T07:55:02.771Z,90.81
2022-12-29T07:56:37.417Z,91.35
2022-12-29T07:57:40.276Z,91.63
2022-12-29T07:58:43.170Z,91.92
2022-12-29T08:00:17.495Z,92.53
2022-12-29T08:01:21.423Z,92.55
2022-12-29T08:02:25.736Z,93.03
2022-12-29T08:04:03.566Z,93.18
2022-12-29T08:05:07.012Z,93.06
2022-12-29T08:06:10.128Z,93.30
2022-12-29T08:07:44.977Z,93.25
2022-12-29T08:08:47.999Z,93.59
2022-12-29T08:10:08.710Z,93.47
2022-12-29T08:11:43.806Z,93.90
2022-12-29T08:12:46.798Z,93.97
2022-12-29T08:13:49.709Z,94.02
2022-12-29T08:15:28.632Z,94.05
2022-12-29T08:16:35.698Z,94.08
2022-12-29T08:17:38.704Z,94.03
2022-12-29T08:19:13.384Z,94.00
2022-12-29T08:20:16.402Z,93.85
2022-12-29T08:21:19.974Z,93.69
2022-12-29T08:22:55.084Z,93.91
2022-12-29T08:23:58.380Z,93.88
2022-12-29T08:25:01.260Z,93.84
2022-12-29T08:26:36.715Z,93.95
2022-12-29T08:27:47.396Z,94.08
2022-12-29T08:28:50.288Z,94.21
2022-12-29T08:30:25.070Z,94.20
2022-12-29T08:31:28.334Z,94.25
2022-12-29T08:32:31.681Z,94.34
2022-12-29T08:34:06.153Z,94.31
2022-12-29T08:35:09.014Z,94.29
2022-12-29T08:36:11.877Z,94.26
2022-12-29T08:37:46.699Z,93.97
2022-12-29T08:38:49.628Z,93.67
2022-12-29T08:39:52.587Z,93.55
2022-12-29T08:41:27.431Z,93.36
2022-12-29T08:42:30.647Z,93.11
2022-12-29T08:43:33.727Z,92.99
2022-12-29T08:45:08.544Z,92.88
2022-12-29T08:46:11.505Z,92.69
2022-12-29T08:47:14.912Z,92.59
2022-12-29T08:48:49.799Z,92.39
2022-12-29T08:49:52.924Z,92.24
2022-12-29T08:50:55.820Z,92.17
2022-12-29T08:52:37.005Z,92.12
2022-12-29T08:53:39.847Z,91.65
2022-12-29T08:54:42.703Z,91.63
2022-12-29T08:56:17.425Z,91.54
2022-12-29T08:57:21.212Z,91.31
2022-12-29T08:58:24.365Z,90.80
2022-12-29T08:59:59.460Z,90.40
2022-12-29T09:00:18.239Z,90.40
2022-12-29T09:01:21.776Z,90.48
2022-12-29T09:02:30.650Z,89.65
2022-12-29T09:05:00.831Z,89.61
2022-12-29T09:06:04.635Z,89.33
2022-12-29T09:07:07.552Z,89.39
2022-12-29T09:08:42.341Z,89.18
2022-12-29T09:09:45.145Z,88.86
2022-12-29T09:10:48.134Z,89.02
2022-12-29T09:12:23.070Z,89.03
2022-12-29T09:13:33.756Z,88.62
2022-12-29T09:14:37.184Z,88.42
2022-12-29T09:16:12.037Z,88.25
2022-12-29T09:17:15.962Z,88.57
2022-12-29T09:18:26.202Z,88.61
2022-12-29T09:20:00.998Z,88.28
2022-12-29T09:21:03.939Z,88.07
2022-12-29T09:22:07.025Z,87.91
2022-12-29T09:23:41.838Z,87.35
2022-12-29T09:24:44.525Z,87.38
2022-12-29T09:25:47.366Z,87.78
2022-12-29T09:27:27.712Z,88.10
2022-12-29T09:28:30.651Z,87.85
2022-12-29T09:29:33.555Z,88.38
2022-12-29T09:31:09.073Z,88.58
2022-12-29T09:32:18.534Z,88.87
2022-12-29T09:33:36.036Z,88.98
2022-12-29T09:35:10.884Z,89.27
2022-12-29T09:36:13.763Z,89.23
2022-12-29T09:37:16.724Z,88.97
2022-12-29T09:38:51.673Z,88.82
2022-12-29T09:40:00.249Z,89.09
2022-12-29T09:41:03.149Z,89.05
2022-12-29T09:42:37.889Z,89.17
2022-12-29T09:43:40.828Z,89.41
2022-12-29T09:44:43.915Z,89.49
2022-12-29T09:46:18.751Z,88.74
2022-12-29T09:47:22.108Z,89.08
2022-12-29T09:48:25.129Z,89.20
2022-12-29T09:49:59.901Z,88.92
2022-12-29T09:51:02.918Z,88.76
2022-12-29T09:52:06.406Z,88.95
2022-12-29T09:53:42.240Z,89.05
2022-12-29T09:54:49.798Z,89.41
2022-12-29T09:56:06.404Z,89.35
2022-12-29T09:57:41.980Z,89.23
2022-12-29T09:58:44.763Z,89.12
2022-12-29T09:59:47.764Z,89.17
2022-12-29T10:00:18.287Z,89.42
2022-12-29T10:01:21.755Z,88.85
2022-12-29T10:02:26.550Z,89.29
2022-12-29T10:04:03.850Z,88.75
2022-12-29T10:05:06.712Z,88.99
2022-12-29T10:06:10.348Z,88.73
2022-12-29T10:08:23.392Z,89.31
2022-12-29T10:09:27.058Z,89.44
2022-12-29T10:10:29.838Z,89.77
2022-12-29T10:12:04.737Z,89.95
2022-12-29T10:13:07.758Z,90.26
2022-12-29T10:14:19.610Z,90.20
2022-12-29T10:15:54.664Z,90.13
2022-12-29T10:16:57.872Z,90.34
2022-12-29T10:18:00.699Z,90.58
2022-12-29T10:19:39.184Z,90.74
2022-12-29T10:20:42.071Z,91.16
2022-12-29T10:21:45.055Z,91.32
2022-12-29T10:23:19.672Z,91.54
2022-12-29T10:24:23.396Z,91.63
2022-12-29T10:25:31.104Z,91.60
2022-12-29T10:27:07.573Z,91.91
2022-12-29T10:28:10.362Z,92.11
2022-12-29T10:29:13.371Z,92.12
2022-12-29T10:30:48.289Z,92.51
2022-12-29T10:31:58.763Z,92.37
2022-12-29T10:33:02.093Z,92.65
2022-12-29T10:34:36.982Z,92.67
2022-12-29T10:35:39.911Z,92.62
2022-12-29T10:36:42.981Z,92.88
2022-12-29T10:38:25.254Z,93.16
2022-12-29T10:39:28.231Z,93.50
2022-12-29T10:40:31.542Z,93.31
2022-12-29T10:42:06.457Z,93.24
2022-12-29T10:43:09.479Z,93.67
2022-12-29T10:44:18.564Z,93.66
2022-12-29T10:45:53.696Z,93.51
2022-12-29T10:46:56.966Z,93.54
2022-12-29T10:47:59.818Z,93.33
2022-12-29T10:49:41.057Z,93.60
2022-12-29T10:50:43.991Z,93.69
2022-12-29T10:51:53.543Z,93.72
2022-12-29T10:53:28.201Z,93.91
2022-12-29T10:54:31.095Z,93.91
2022-12-29T10:55:33.967Z,94.10
2022-12-29T10:57:08.700Z,94.34
2022-12-29T10:58:11.721Z,94.39
2022-12-29T10:59:14.572Z,94.48
2022-12-29T11:00:17.802Z,94.59
2022-12-29T11:01:21.358Z,94.51
2022-12-29T11:02:25.441Z,94.47
2022-12-29T11:04:01.435Z,94.72
2022-12-29T11:05:04.801Z,94.80
2022-12-29T11:06:07.620Z,94.74
2022-12-29T11:07:42.427Z,94.61
2022-12-29T11:08:45.150Z,94.49
2022-12-29T11:09:49.167Z,94.26
2022-12-29T11:11:24.071Z,94.42
2022-12-29T11:12:26.929Z,94.31
2022-12-29T11:13:33.548Z,94.55
2022-12-29T11:15:11.412Z,94.75
2022-12-29T11:16:14.606Z,94.68
2022-12-29T11:17:18.019Z,94.56
2022-12-29T11:18:52.504Z,94.67
2022-12-29T11:19:55.459Z,94.63
2022-12-29T11:20:58.398Z,94.83
2022-12-29T11:22:33.175Z,94.79
2022-12-29T11:23:36.011Z,94.65
2022-12-29T11:24:38.706Z,94.67
2022-12-29T11:26:13.890Z,94.48
2022-12-29T11:27:25.302Z,94.66
2022-12-29T11:28:28.159Z,94.60
2022-12-29T11:30:03.176Z,95.20
2022-12-29T11:31:06.050Z,95.18
2022-12-29T11:32:09.553Z,95.28
2022-12-29T11:33:52.188Z,94.97
2022-12-29T11:34:55.046Z,94.92
2022-12-29T11:35:58.104Z,94.77
2022-12-29T11:37:32.815Z,94.66
2022-12-29T11:38:36.029Z,94.72
2022-12-29T11:39:38.815Z,94.94
2022-12-29T11:41:13.569Z,94.92
2022-12-29T11:42:16.455Z,94.94
2022-12-29T11:43:19.245Z,94.73
2022-12-29T11:44:53.864Z,94.69
2022-12-29T11:46:02.574Z,94.92
2022-12-29T11:47:05.903Z,94.73
2022-12-29T11:48:40.805Z,94.54
2022-12-29T11:49:43.681Z,94.71
2022-12-29T11:50:46.559Z,94.80
2022-12-29T11:52:21.155Z,94.38
2022-12-29T11:53:23.957Z,94.31
2022-12-29T11:54:26.703Z,94.32
2022-12-29T11:56:01.377Z,94.24
2022-12-29T11:57:04.421Z,94.22
2022-12-29T11:58:07.120Z,94.13
2022-12-29T11:59:41.848Z,93.62
2022-12-29T12:00:17.850Z,93.62
2022-12-29T12:01:20.751Z,93.88
2022-12-29T12:02:24.362Z,93.70
2022-12-29T12:04:07.429Z,93.37
2022-12-29T12:05:10.767Z,93.14
2022-12-29T12:06:13.749Z,92.96
2022-12-29T12:07:48.626Z,93.22
2022-12-29T12:08:56.729Z,93.30
2022-12-29T12:10:06.545Z,93.38
2022-12-29T12:11:42.503Z,93.24
2022-12-29T12:12:45.401Z,92.91
2022-12-29T12:13:48.380Z,92.81
2022-12-29T12:15:23.190Z,93.08
2022-12-29T12:16:37.789Z,93.01
2022-12-29T12:17:41.186Z,91.90
2022-12-29T12:19:15.774Z,92.02
2022-12-29T12:20:18.761Z,92.15
2022-12-29T12:21:21.567Z,92.16
2022-12-29T12:23:03.246Z,91.91
2022-12-29T12:24:06.041Z,91.91
2022-12-29T12:25:09.001Z,91.76
2022-12-29T12:26:43.617Z,91.76
2022-12-29T12:27:46.387Z,91.76
2022-12-29T12:28:49.393Z,91.82
2022-12-29T12:30:24.232Z,91.98
2022-12-29T12:31:27.732Z,92.19
2022-12-29T12:32:30.931Z,92.03
2022-12-29T12:34:05.488Z,92.07
2022-12-29T12:35:08.386Z,92.19
2022-12-29T12:36:19.015Z,92.16
2022-12-29T12:37:53.708Z,92.17
2022-12-29T12:38:56.687Z,92.21
2022-12-29T12:39:59.507Z,92.19
2022-12-29T12:41:34.348Z,91.93
2022-12-29T12:42:37.627Z,91.77
2022-12-29T12:43:40.593Z,91.75
2022-12-29T12:45:16.180Z,91.72
2022-12-29T12:46:19.372Z,91.66
2022-12-29T12:47:24.389Z,91.79
2022-12-29T12:48:59.380Z,91.14
2022-12-29T12:50:02.185Z,90.89
2022-12-29T12:51:05.218Z,90.60
2022-12-29T12:52:46.417Z,90.57
2022-12-29T12:53:49.192Z,90.32
2022-12-29T12:54:52.257Z,90.78
2022-12-29T12:56:27.001Z,91.25
2022-12-29T12:57:29.866Z,91.54
2022-12-29T12:58:32.794Z,91.56
2022-12-29T13:00:17.002Z,92.22
2022-12-29T13:01:19.967Z,92.31
2022-12-29T13:02:24.425Z,92.26
2022-12-29T13:04:01.990Z,92.47
2022-12-29T13:05:04.808Z,92.77
2022-12-29T13:06:13.654Z,92.93
2022-12-29T13:07:48.363Z,93.08
2022-12-29T13:08:51.242Z,93.07
2022-12-29T13:09:54.114Z,93.25
2022-12-29T13:11:34.546Z,93.13
2022-12-29T13:12:37.473Z,92.98
2022-12-29T13:13:40.588Z,92.99
2022-12-29T13:15:15.666Z,92.85
2022-12-29T13:16:20.499Z,92.71
2022-12-29T13:17:23.763Z,92.70
2022-12-29T13:18:58.500Z,92.53
2022-12-29T13:20:01.356Z,92.70
2022-12-29T13:21:04.218Z,92.49
2022-12-29T13:22:53.162Z,92.52
2022-12-29T13:23:56.195Z,92.49
2022-12-29T13:24:59.106Z,92.09
2022-12-29T13:26:33.988Z,92.08
2022-12-29T13:27:43.350Z,91.22
2022-12-29T13:28:46.346Z,91.27
2022-12-29T13:30:21.213Z,90.96
2022-12-29T13:31:24.714Z,90.83
2022-12-29T13:32:28.228Z,90.72
2022-12-29T13:34:11.058Z,90.61
2022-12-29T13:35:14.019Z,90.77
2022-12-29T13:36:17.116Z,90.79
2022-12-29T13:37:51.910Z,90.62
2022-12-29T13:38:55.011Z,90.79
2022-12-29T13:40:05.079Z,90.23
2022-12-29T13:41:39.629Z,90.11
2022-12-29T13:42:42.586Z,90.19
2022-12-29T13:43:45.465Z,90.08
2022-12-29T13:45:27.857Z,89.71
2022-12-29T13:46:30.813Z,89.68
2022-12-29T13:47:34.370Z,89.96
2022-12-29T13:49:09.319Z,89.52
2022-12-29T13:50:12.306Z,89.33
2022-12-29T13:51:15.303Z,89.28
2022-12-29T13:52:56.932Z,89.40
2022-12-29T13:53:59.676Z,89.47
2022-12-29T13:55:02.460Z,89.47
2022-12-29T13:56:37.066Z,89.21
2022-12-29T13:57:39.933Z,88.95
2022-12-29T13:58:42.714Z,89.06
2022-12-29T14:00:18.147Z,88.70
2022-12-29T14:01:21.549Z,88.74
2022-12-29T14:02:25.806Z,88.75
2022-12-29T14:04:10.801Z,88.42
2022-12-29T14:05:13.843Z,88.83
2022-12-29T14:06:16.940Z,88.48
2022-12-29T14:07:51.612Z,88.51
2022-12-29T14:08:54.330Z,88.35
2022-12-29T14:09:57.213Z,88.52
2022-12-29T14:11:31.891Z,88.39
2022-12-29T14:12:34.725Z,88.73
2022-12-29T14:13:37.436Z,88.70
2022-12-29T14:15:12.135Z,89.13
2022-12-29T14:16:15.092Z,89.66
2022-12-29T14:17:21.060Z,90.17
2022-12-29T14:18:55.804Z,89.90
2022-12-29T14:19:58.711Z,89.02
2022-12-29T14:21:01.636Z,88.89
2022-12-29T14:22:39.218Z,88.94
2022-12-29T14:23:42.169Z,89.00
2022-12-29T14:24:45.015Z,89.21
2022-12-29T14:26:19.629Z,89.95
2022-12-29T14:27:22.564Z,90.46
2022-12-29T14:28:25.276Z,90.72
2022-12-29T14:29:59.925Z,91.17
2022-12-29T14:31:03.038Z,91.05
2022-12-29T14:32:06.411Z,91.13
2022-12-29T14:33:41.229Z,91.36
2022-12-29T14:34:47.572Z,91.29
2022-12-29T14:35:54.764Z,91.47
2022-12-29T14:37:29.470Z,91.54
2022-12-29T14:38:32.394Z,91.69
2022-12-29T14:39:35.637Z,91.72
2022-12-29T14:41:20.655Z,91.78
2022-12-29T14:42:24.082Z,91.92
2022-12-29T14:43:26.924Z,91.80
2022-12-29T14:45:01.590Z,92.01
2022-12-29T14:46:04.440Z,92.20
2022-12-29T14:47:07.749Z,92.06
2022-12-29T14:48:42.652Z,92.30
2022-12-29T14:49:45.465Z,92.34
2022-12-29T14:50:48.396Z,92.35
2022-12-29T14:52:23.118Z,92.38
2022-12-29T14:53:26.164Z,92.15
2022-12-29T14:54:29.076Z,92.02
2022-12-29T14:56:03.873Z,91.70
2022-12-29T14:57:06.761Z,91.80
2022-12-29T14:58:17.619Z,91.58
2022-12-29T14:59:52.211Z,91.13
2022-12-29T15:00:17.701Z,91.06
2022-12-29T15:01:21.130Z,91.31
2022-12-29T15:02:25.468Z,91.31
2022-12-29T15:04:01.394Z,90.74
2022-12-29T15:05:04.257Z,90.85
2022-12-29T15:06:14.692Z,90.78
2022-12-29T15:07:49.465Z,90.64
2022-12-29T15:08:52.329Z,90.34
2022-12-29T15:09:55.156Z,89.98
2022-12-29T15:11:29.968Z,89.66
2022-12-29T15:12:33.094Z,89.36
2022-12-29T15:13:36.013Z,88.93
2022-12-29T15:15:10.763Z,88.94
2022-12-29T15:16:13.759Z,89.43
2022-12-29T15:17:17.073Z,89.79
2022-12-29T15:18:51.702Z,89.78
2022-12-29T15:20:00.450Z,90.87
2022-12-29T15:21:03.456Z,91.25
2022-12-29T15:22:38.005Z,91.25
2022-12-29T15:23:40.826Z,91.46
2022-12-29T15:24:48.666Z,91.72
2022-12-29T15:26:23.482Z,91.88
2022-12-29T15:27:26.375Z,92.19
2022-12-29T15:28:29.301Z,92.12
2022-12-29T15:30:04.126Z,92.84
2022-12-29T15:31:12.550Z,92.92
2022-12-29T15:32:22.479Z,93.04
2022-12-29T15:33:57.108Z,93.47
2022-12-29T15:35:00.515Z,93.53
2022-12-29T15:36:03.210Z,93.80
2022-12-29T15:37:38.026Z,93.99
2022-12-29T15:38:46.386Z,94.30
2022-12-29T15:39:49.365Z,94.30
2022-12-29T15:41:24.295Z,94.38
2022-12-29T15:42:27.222Z,94.56
2022-12-29T15:43:30.114Z,94.54
2022-12-29T15:45:16.635Z,94.75
2022-12-29T15:46:19.893Z,94.80
2022-12-29T15:47:22.912Z,94.60
2022-12-29T15:48:57.667Z,94.69
2022-12-29T15:50:00.490Z,94.73
2022-12-29T15:51:03.272Z,94.77
2022-12-29T15:52:37.825Z,94.79